Terminal Aerodrome Forecast
Issued by NWS Brownsville, TX

Home | Current Version | Previous Version | Text Only | Print | Product List | Glossary On
Versions: 1 2 3 4 5 6 7 8 9 10 11 12 13 14 15 16 17 18 19 20 21 22 23 24
000
FTUS44 KBRO 241425 AAA
TAFHRL
TAF AMD
KHRL 241425Z 2414/2512 17018G23KT P6SM FEW027
     FM241700 17025G35KT P6SM SCT020 SCT050
     FM242300 17018G24KT P6SM SCT040 BKN200
     FM250200 15010KT P6SM SCT020 BKN200
     FM250500 14008KT 5SM BR BKN010 PROB30 2506/2512 -TSRA BKN010CB=

USA.gov is the U.S. government's official web portal to all federal, state and local government web resources and services.